Terminal Aerodrome Forecast
Issued by NWS Quad Cities IA IL

Home | Current Version | Previous Version | Text Only | Print | Product List | Glossary On
Versions: 1 2 3 4 5 6 7 8 9 10 11 12 13 14 15 16 17 18 19 20 21
376
FTUS43 KDVN 081800 AAA
TAFMLI
TAF AMD
KMLI 081800Z 0818/0918 31017G23KT 5SM -SN BR OVC025
      TEMPO 0818/0820 2SM -SN BR BKN018 OVC028
     FM090100 31016KT 6SM -SN BR OVC030
     FM091600 31017G23KT 6SM -SN BR OVC030=

USA.gov is the U.S. government's official web portal to all federal, state and local government web resources and services.